Ypsilanti, North Dakota
Current Conditions -  °F | °C
As of 1:56 PM on Monday 24 Nov 2014 (Local Time) from KJMS Reporting Station
Clear Clear  
Wind Chill:   Ceiling: Unl
Heat Index: 20°   Visibility: 10mi
Dew Point:   Wind: 22mph
Humidity: 52%   Direction: 330°NNW
Pressure: 29.85"   Gusts: 31mph
Location:  46.78°N, 98.57°W
Report Text: KJMS 241956Z AUTO 33019G27KT 10SM CLR M07/M15 A2985 RMK AO2 PK WND 33029/1915 SLP136 T10671150
Loading
Personal Weather Stations






























Interactive Weather Map New forecast layout! Learn more

10-Day Weather Forecast

Advertisements
Track Severe Weather on mobile